createdAt,value
2023-02-11T00:01:55.077Z,9.90
2023-02-11T00:04:40.970Z,10.00
2023-02-11T00:07:29.243Z,10.10
2023-02-11T00:10:15.096Z,9.80
2023-02-11T00:13:01.004Z,10.00
2023-02-11T00:15:46.616Z,9.90
2023-02-11T00:18:32.002Z,10.00
2023-02-11T00:21:20.042Z,9.80
2023-02-11T00:24:21.871Z,10.00
2023-02-11T00:27:09.030Z,9.90
2023-02-11T00:29:58.016Z,10.00
2023-02-11T00:32:43.529Z,10.10
2023-02-11T00:35:29.403Z,10.10
2023-02-11T00:38:15.167Z,10.20
2023-02-11T00:41:03.211Z,10.30
2023-02-11T00:43:51.229Z,10.20
2023-02-11T00:46:38.521Z,10.20
2023-02-11T00:49:25.546Z,10.10
2023-02-11T00:52:11.502Z,10.10
2023-02-11T00:54:57.372Z,9.90
2023-02-11T00:57:49.842Z,10.10
2023-02-11T01:00:47.466Z,10.10
2023-02-11T01:03:36.773Z,10.10
2023-02-11T01:06:22.706Z,10.30
2023-02-11T01:09:08.859Z,10.10
2023-02-11T01:11:55.435Z,10.00
2023-02-11T01:14:43.089Z,9.80
2023-02-11T01:17:28.959Z,9.70
2023-02-11T01:20:17.760Z,9.60
2023-02-11T01:23:03.514Z,9.60
2023-02-11T01:25:51.101Z,9.60
2023-02-11T01:28:37.281Z,9.70
2023-02-11T01:31:24.694Z,9.50
2023-02-11T01:34:11.620Z,9.70
2023-02-11T01:36:58.953Z,9.60
2023-02-11T01:39:45.080Z,9.60
2023-02-11T01:42:32.656Z,9.60
2023-02-11T01:45:47.020Z,9.80
2023-02-11T01:48:38.188Z,9.90
2023-02-11T01:51:25.685Z,9.90
2023-02-11T01:54:34.665Z,10.10
2023-02-11T01:57:24.938Z,10.10
2023-02-11T02:00:14.169Z,10.10
2023-02-11T02:03:06.140Z,10.00
2023-02-11T02:05:58.687Z,9.80
2023-02-11T02:08:53.455Z,9.90
2023-02-11T02:11:39.238Z,10.20
2023-02-11T02:14:26.567Z,10.10
2023-02-11T02:17:24.935Z,10.10
2023-02-11T02:20:58.267Z,9.80
2023-02-11T02:24:21.608Z,9.90
2023-02-11T02:27:43.751Z,9.90
2023-02-11T02:31:01.504Z,9.90
2023-02-11T02:33:55.736Z,10.00
2023-02-11T02:36:46.285Z,9.80
2023-02-11T02:39:35.369Z,9.90
2023-02-11T02:42:22.364Z,10.00
2023-02-11T02:45:10.972Z,10.10
2023-02-11T02:47:56.724Z,9.90
2023-02-11T02:50:43.943Z,9.70
2023-02-11T02:53:38.844Z,9.70
2023-02-11T02:56:30.776Z,9.80
2023-02-11T02:59:35.517Z,9.70
2023-02-11T03:02:27.891Z,9.60
2023-02-11T03:05:18.778Z,9.50
2023-02-11T03:08:09.955Z,9.50
2023-02-11T03:10:56.508Z,9.40
2023-02-11T03:13:44.393Z,9.60
2023-02-11T03:16:38.031Z,9.50
2023-02-11T03:19:26.561Z,9.40
2023-02-11T03:22:22.472Z,9.40
2023-02-11T03:25:10.192Z,9.30
2023-02-11T03:28:03.653Z,9.30
2023-02-11T03:30:55.405Z,9.60
2023-02-11T03:33:49.211Z,9.40
2023-02-11T03:36:46.144Z,9.60
2023-02-11T03:39:36.815Z,9.70
2023-02-11T03:42:27.164Z,9.70
2023-02-11T03:45:16.552Z,9.60
2023-02-11T03:48:06.892Z,9.60
2023-02-11T03:50:55.285Z,9.60
2023-02-11T03:53:44.382Z,9.40
2023-02-11T03:56:33.216Z,9.40
2023-02-11T03:59:20.645Z,9.40
2023-02-11T04:02:06.534Z,9.40
2023-02-11T04:04:52.136Z,9.30
2023-02-11T04:07:37.732Z,9.30
2023-02-11T04:10:23.185Z,9.20
2023-02-11T04:13:08.713Z,9.30
2023-02-11T04:15:55.730Z,9.20
2023-02-11T04:18:41.293Z,9.20
2023-02-11T04:21:26.676Z,9.40
2023-02-11T04:24:12.305Z,9.70
2023-02-11T04:26:57.939Z,9.70
2023-02-11T04:29:43.493Z,9.60
2023-02-11T04:32:30.313Z,9.60
2023-02-11T04:35:15.939Z,9.60
2023-02-11T04:38:01.551Z,9.80
2023-02-11T04:40:47.321Z,9.70
2023-02-11T04:43:32.932Z,9.50
2023-02-11T04:46:18.321Z,9.60
2023-02-11T04:49:05.872Z,9.80
2023-02-11T04:51:51.683Z,9.50
2023-02-11T04:54:37.553Z,9.40
2023-02-11T04:57:23.474Z,9.40
2023-02-11T05:00:10.526Z,9.50
2023-02-11T05:02:56.114Z,9.40
2023-02-11T05:05:43.482Z,9.40
2023-02-11T05:08:29.482Z,9.60
2023-02-11T05:11:17.573Z,9.80
2023-02-11T05:14:03.458Z,9.60
2023-02-11T05:16:48.989Z,9.80
2023-02-11T05:19:34.503Z,9.80
2023-02-11T05:22:22.143Z,9.70
2023-02-11T05:25:08.627Z,9.70
2023-02-11T05:28:04.042Z,9.70
2023-02-11T05:30:50.451Z,9.60
2023-02-11T05:33:37.458Z,9.50
2023-02-11T05:36:23.501Z,9.70
2023-02-11T05:39:13.516Z,9.50
2023-02-11T05:41:59.176Z,9.50
2023-02-11T05:44:44.870Z,9.60
2023-02-11T05:47:34.134Z,9.60
2023-02-11T05:50:20.037Z,9.50
2023-02-11T05:53:06.854Z,9.40
2023-02-11T05:55:53.912Z,9.50
2023-02-11T05:58:39.857Z,9.60
2023-02-11T06:01:25.798Z,9.60
2023-02-11T06:04:11.388Z,9.70
2023-02-11T06:06:57.005Z,9.60
2023-02-11T06:09:43.124Z,9.20
2023-02-11T06:12:30.127Z,9.50
2023-02-11T06:15:15.969Z,9.40
2023-02-11T06:18:01.489Z,9.40
2023-02-11T06:20:47.123Z,9.30
2023-02-11T06:23:32.514Z,9.30
2023-02-11T06:26:20.666Z,9.60
2023-02-11T06:29:08.064Z,9.50
2023-02-11T06:31:53.947Z,9.50
2023-02-11T06:34:40.401Z,9.70
2023-02-11T06:37:26.388Z,9.60
2023-02-11T06:40:12.575Z,9.60
2023-02-11T06:42:58.097Z,9.70
2023-02-11T06:45:44.922Z,9.70
2023-02-11T06:48:30.670Z,10.00
2023-02-11T06:51:16.330Z,9.80
2023-02-11T06:54:01.785Z,9.70
2023-02-11T06:56:47.333Z,9.80
2023-02-11T06:59:33.048Z,9.60
2023-02-11T07:02:21.081Z,9.80
2023-02-11T07:05:07.627Z,10.00
2023-02-11T07:07:53.259Z,9.70
2023-02-11T07:10:38.867Z,9.70
2023-02-11T07:13:24.337Z,9.80
2023-02-11T07:16:12.709Z,9.80
2023-02-11T07:19:00.031Z,9.90
2023-02-11T07:21:45.662Z,9.80
2023-02-11T07:24:31.602Z,9.70
2023-02-11T07:27:17.523Z,9.40
2023-02-11T07:30:06.875Z,9.70
2023-02-11T07:32:53.078Z,9.80
2023-02-11T07:35:42.658Z,9.70
2023-02-11T07:38:28.468Z,9.90
2023-02-11T07:41:17.182Z,9.90
2023-02-11T07:44:03.282Z,10.10
2023-02-11T07:46:49.359Z,10.40
2023-02-11T07:49:35.270Z,10.10
2023-02-11T07:52:22.085Z,10.10
2023-02-11T07:55:09.159Z,10.20
2023-02-11T07:57:55.036Z,10.20
2023-02-11T08:00:40.809Z,10.30
2023-02-11T08:03:26.665Z,10.40
2023-02-11T08:06:14.412Z,10.50
2023-02-11T08:09:07.531Z,10.50
2023-02-11T08:11:53.373Z,10.50
2023-02-11T08:14:39.069Z,10.50
2023-02-11T08:17:24.559Z,10.80
2023-02-11T08:20:10.788Z,10.60
2023-02-11T08:22:56.597Z,10.50
2023-02-11T08:25:43.561Z,10.70
2023-02-11T08:28:29.276Z,10.60
2023-02-11T08:31:18.145Z,10.90
2023-02-11T08:34:04.209Z,11.00
2023-02-11T08:36:50.180Z,10.70
2023-02-11T08:39:36.019Z,10.70
2023-02-11T08:42:23.301Z,10.80
2023-02-11T08:45:10.435Z,10.60
2023-02-11T08:47:55.881Z,10.90
2023-02-11T08:50:41.350Z,11.00
2023-02-11T08:53:26.915Z,11.00
2023-02-11T08:56:19.490Z,11.20
2023-02-11T08:59:07.246Z,11.20
2023-02-11T09:01:53.234Z,11.40
2023-02-11T09:04:39.447Z,11.60
2023-02-11T09:07:25.148Z,11.70
2023-02-11T09:10:10.684Z,11.60
2023-02-11T09:12:56.615Z,11.70
2023-02-11T09:15:46.891Z,11.70
2023-02-11T09:18:33.410Z,11.80
2023-02-11T09:21:19.764Z,11.80
2023-02-11T09:24:06.680Z,12.30
2023-02-11T09:26:52.876Z,12.50
2023-02-11T09:29:38.366Z,12.60
2023-02-11T09:32:25.605Z,12.60
2023-02-11T09:35:11.129Z,12.70
2023-02-11T09:37:56.824Z,12.70
2023-02-11T09:40:43.683Z,13.00
2023-02-11T09:43:36.300Z,12.90
2023-02-11T09:46:23.176Z,12.70
2023-02-11T09:49:18.200Z,12.80
2023-02-11T09:52:07.176Z,13.00
2023-02-11T09:54:56.109Z,13.10
2023-02-11T09:57:41.884Z,13.40
2023-02-11T10:00:33.059Z,13.40
2023-02-11T10:03:49.747Z,13.20
2023-02-11T10:06:43.430Z,13.20
2023-02-11T10:09:40.958Z,13.20
2023-02-11T10:12:47.231Z,13.40
2023-02-11T10:15:43.209Z,13.20
2023-02-11T10:18:44.138Z,13.60
2023-02-11T10:21:38.779Z,13.70
2023-02-11T10:24:29.178Z,13.90
2023-02-11T10:27:19.396Z,14.10
2023-02-11T10:30:09.939Z,14.40
2023-02-11T10:33:00.825Z,14.40
2023-02-11T10:35:46.710Z,14.60
2023-02-11T10:38:33.810Z,14.90
2023-02-11T10:41:26.312Z,15.20
2023-02-11T10:44:23.263Z,15.20
2023-02-11T10:47:15.762Z,15.40
2023-02-11T10:50:04.408Z,15.80
2023-02-11T10:52:50.301Z,16.20
2023-02-11T10:55:36.897Z,16.50
2023-02-11T10:58:28.074Z,16.60
2023-02-11T11:01:24.376Z,16.80
2023-02-11T11:04:39.746Z,17.00
2023-02-11T11:07:27.886Z,16.90
2023-02-11T11:10:43.329Z,16.90
2023-02-11T11:13:33.435Z,16.50
2023-02-11T11:16:23.090Z,16.20
2023-02-11T11:19:20.427Z,16.00
2023-02-11T11:22:05.956Z,15.90
2023-02-11T11:24:54.293Z,15.80
2023-02-11T11:27:39.964Z,16.00
2023-02-11T11:30:32.991Z,16.20
2023-02-11T11:33:22.574Z,16.40
2023-02-11T11:36:12.075Z,16.50
2023-02-11T11:39:15.488Z,17.00
2023-02-11T11:44:24.619Z,17.10
2023-02-11T11:47:21.912Z,17.50
2023-02-11T11:50:22.845Z,17.40
2023-02-11T11:53:12.562Z,17.40
2023-02-11T11:56:00.605Z,17.30
2023-02-11T11:58:46.694Z,17.20
2023-02-11T12:01:41.699Z,17.30
2023-02-11T12:04:42.143Z,17.50
2023-02-11T12:07:35.629Z,17.90
2023-02-11T12:10:26.799Z,17.90
2023-02-11T12:13:20.109Z,17.40
2023-02-11T12:16:10.430Z,17.30
2023-02-11T12:19:18.799Z,17.60
2023-02-11T12:22:09.898Z,18.00
2023-02-11T12:25:06.457Z,17.50
2023-02-11T12:28:04.497Z,17.00
2023-02-11T12:30:57.614Z,16.60
2023-02-11T12:33:51.370Z,16.60
2023-02-11T12:36:45.868Z,16.60
2023-02-11T12:39:40.621Z,17.00
2023-02-11T12:42:53.073Z,16.90
2023-02-11T12:45:53.420Z,17.00
2023-02-11T12:48:55.014Z,17.40
2023-02-11T12:51:49.370Z,17.50
2023-02-11T12:54:37.240Z,17.20
2023-02-11T12:57:24.299Z,17.10
2023-02-11T13:00:16.299Z,16.70
2023-02-11T13:03:04.161Z,16.70
2023-02-11T13:05:52.260Z,16.80
2023-02-11T13:08:41.093Z,17.20
2023-02-11T13:11:28.328Z,17.70
2023-02-11T13:14:17.437Z,18.30
2023-02-11T13:17:04.213Z,18.40
2023-02-11T13:19:52.771Z,18.20
2023-02-11T13:22:40.089Z,18.20
2023-02-11T13:25:29.847Z,17.60
2023-02-11T13:28:22.530Z,17.60
2023-02-11T13:31:09.186Z,17.60
2023-02-11T13:33:55.141Z,17.30
2023-02-11T13:36:40.906Z,17.10
2023-02-11T13:39:26.651Z,17.10
2023-02-11T13:42:15.791Z,17.00
2023-02-11T13:45:02.883Z,16.70
2023-02-11T13:47:51.738Z,16.50
2023-02-11T13:50:39.668Z,16.80
2023-02-11T13:53:25.970Z,16.50
2023-02-11T13:56:23.100Z,16.80
2023-02-11T13:59:33.023Z,16.80
2023-02-11T14:02:41.914Z,16.70
2023-02-11T14:05:50.526Z,16.50
2023-02-11T14:09:14.935Z,16.50
2023-02-11T14:12:19.279Z,16.40
2023-02-11T14:15:24.199Z,16.20
2023-02-11T14:18:36.895Z,16.40
2023-02-11T14:21:30.458Z,16.40
2023-02-11T14:24:34.935Z,16.60
2023-02-11T14:27:24.154Z,16.40
2023-02-11T14:30:20.344Z,16.40
2023-02-11T14:33:16.035Z,16.20
2023-02-11T14:36:05.707Z,16.20
2023-02-11T14:38:58.116Z,16.60
2023-02-11T14:41:45.459Z,16.80
2023-02-11T14:44:32.354Z,17.00
2023-02-11T14:47:20.244Z,17.10
2023-02-11T14:50:09.820Z,17.00
2023-02-11T14:52:55.834Z,16.90
2023-02-11T14:55:44.394Z,16.80
2023-02-11T14:58:31.007Z,16.70
2023-02-11T15:01:27.319Z,16.60
2023-02-11T15:04:22.820Z,16.50
2023-02-11T15:07:08.540Z,16.30
2023-02-11T15:09:54.450Z,16.50
2023-02-11T15:12:41.372Z,16.40
2023-02-11T15:15:27.867Z,16.20
2023-02-11T15:18:21.248Z,16.40
2023-02-11T15:21:07.243Z,16.20
2023-02-11T15:23:57.348Z,16.10
2023-02-11T15:26:43.004Z,16.10
2023-02-11T15:29:36.000Z,16.00
2023-02-11T15:32:23.204Z,15.90
2023-02-11T15:35:11.377Z,16.00
2023-02-11T15:37:58.108Z,15.80
2023-02-11T15:40:51.967Z,15.80
2023-02-11T15:43:42.541Z,15.70
2023-02-11T15:46:33.240Z,15.50
2023-02-11T15:49:19.363Z,15.60
2023-02-11T15:52:04.919Z,15.80
2023-02-11T15:54:51.257Z,15.50
2023-02-11T15:57:37.066Z,15.70
2023-02-11T16:00:24.713Z,15.60
2023-02-11T16:03:19.558Z,15.40
2023-02-11T16:06:18.842Z,15.00
2023-02-11T16:09:05.968Z,15.00
2023-02-11T16:11:55.751Z,14.60
2023-02-11T16:14:42.381Z,14.60
2023-02-11T16:17:29.511Z,14.60
2023-02-11T16:20:20.231Z,14.50
2023-02-11T16:23:06.219Z,14.20
2023-02-11T16:25:53.502Z,14.50
2023-02-11T16:28:39.710Z,14.40
2023-02-11T16:31:32.218Z,14.20
2023-02-11T16:34:18.611Z,14.00
2023-02-11T16:37:05.856Z,14.00
2023-02-11T16:39:53.523Z,14.00
2023-02-11T16:42:39.042Z,13.80
2023-02-11T16:45:24.962Z,13.80
2023-02-11T16:48:13.634Z,13.80
2023-02-11T16:50:59.203Z,13.80
2023-02-11T16:53:46.453Z,13.90
2023-02-11T16:56:32.321Z,13.90
2023-02-11T16:59:18.314Z,14.00
2023-02-11T17:02:03.800Z,14.00
2023-02-11T17:04:49.627Z,13.90
2023-02-11T17:07:35.575Z,14.10
2023-02-11T17:10:23.539Z,13.90
2023-02-11T17:13:08.978Z,14.00
2023-02-11T17:15:54.860Z,13.90
2023-02-11T17:18:40.771Z,13.90
2023-02-11T17:21:29.512Z,14.10
2023-02-11T17:24:16.015Z,14.20
2023-02-11T17:27:03.212Z,14.10
2023-02-11T17:29:48.991Z,14.20
2023-02-11T17:32:34.748Z,14.00
2023-02-11T17:35:20.356Z,14.00
2023-02-11T17:38:06.241Z,13.80
2023-02-11T17:40:58.876Z,13.80
2023-02-11T17:43:46.304Z,13.50
2023-02-11T17:46:32.405Z,13.60
2023-02-11T17:49:17.848Z,13.60
2023-02-11T17:52:03.576Z,13.70
2023-02-11T17:54:49.144Z,13.50
2023-02-11T17:57:34.922Z,13.50
2023-02-11T18:00:23.260Z,13.50
2023-02-11T18:03:09.013Z,13.60
2023-02-11T18:05:59.085Z,13.70
2023-02-11T18:08:45.226Z,13.60
2023-02-11T18:11:31.443Z,13.60
2023-02-11T18:14:16.921Z,13.60
2023-02-11T18:17:04.924Z,13.50
2023-02-11T18:19:50.613Z,13.50
2023-02-11T18:22:39.443Z,13.40
2023-02-11T18:25:25.121Z,13.30
2023-02-11T18:28:10.674Z,13.30
2023-02-11T18:30:57.203Z,13.30
2023-02-11T18:33:44.603Z,13.40
2023-02-11T18:36:30.350Z,13.30
2023-02-11T18:39:16.509Z,13.20
2023-02-11T18:42:02.149Z,13.00
2023-02-11T18:44:47.756Z,13.10
2023-02-11T18:47:33.576Z,13.20
2023-02-11T18:50:22.127Z,13.20
2023-02-11T18:53:07.512Z,13.10
2023-02-11T18:55:53.834Z,13.20
2023-02-11T18:58:39.985Z,13.10
2023-02-11T19:01:27.522Z,13.30
2023-02-11T19:04:13.128Z,13.30
2023-02-11T19:07:03.240Z,13.40
2023-02-11T19:09:48.723Z,13.50
2023-02-11T19:12:34.255Z,13.50
2023-02-11T19:15:19.975Z,13.50
2023-02-11T19:18:05.858Z,13.50
2023-02-11T19:20:51.257Z,13.60
2023-02-11T19:23:38.553Z,13.50
2023-02-11T19:26:24.560Z,13.40
2023-02-11T19:29:10.480Z,13.50
2023-02-11T19:31:56.229Z,13.50
2023-02-11T19:34:41.841Z,13.50
2023-02-11T19:37:27.399Z,13.40
2023-02-11T19:40:15.608Z,13.40
2023-02-11T19:43:01.213Z,13.60
2023-02-11T19:45:47.008Z,13.70
2023-02-11T19:48:32.785Z,13.70
2023-02-11T19:51:18.820Z,13.80
2023-02-11T19:54:05.094Z,13.60
2023-02-11T19:56:52.493Z,13.80
2023-02-11T19:59:38.165Z,13.70
2023-02-11T20:02:24.094Z,13.70
2023-02-11T20:05:09.686Z,13.60
2023-02-11T20:07:55.253Z,13.70
2023-02-11T20:10:40.991Z,13.70
2023-02-11T20:13:29.755Z,13.60
2023-02-11T20:16:19.465Z,13.60
2023-02-11T20:19:04.948Z,13.50
2023-02-11T20:21:52.241Z,13.50
2023-02-11T20:24:37.795Z,13.60
2023-02-11T20:27:24.139Z,13.60
2023-02-11T20:30:11.871Z,13.70
2023-02-11T20:32:58.491Z,13.60
2023-02-11T20:35:44.060Z,13.50
2023-02-11T20:38:29.782Z,13.50
2023-02-11T20:41:16.384Z,13.60
2023-02-11T20:44:03.121Z,13.60
2023-02-11T20:46:51.352Z,13.80
2023-02-11T20:49:37.046Z,13.80
2023-02-11T20:52:23.089Z,13.70
2023-02-11T20:55:08.574Z,13.80
2023-02-11T20:57:53.856Z,13.60
2023-02-11T21:00:39.498Z,13.60
2023-02-11T21:03:26.648Z,13.50
2023-02-11T21:06:12.316Z,13.50
2023-02-11T21:08:58.007Z,13.50
2023-02-11T21:11:43.753Z,13.50
2023-02-11T21:14:29.829Z,13.50
2023-02-11T21:17:15.695Z,13.60
2023-02-11T21:20:02.507Z,13.60
2023-02-11T21:22:48.082Z,13.40
2023-02-11T21:25:33.686Z,13.30
2023-02-11T21:28:19.441Z,12.90
2023-02-11T21:31:05.187Z,13.00
2023-02-11T21:33:50.985Z,12.90
2023-02-11T21:36:37.920Z,13.10
2023-02-11T21:39:23.660Z,13.20
2023-02-11T21:42:09.298Z,13.40
2023-02-11T21:44:54.837Z,13.50
2023-02-11T21:47:40.435Z,13.50
2023-02-11T21:50:25.732Z,13.50
2023-02-11T21:53:12.920Z,13.40
2023-02-11T21:56:02.269Z,13.30
2023-02-11T21:58:51.599Z,13.20
2023-02-11T22:01:37.353Z,13.10
2023-02-11T22:04:22.952Z,12.90
2023-02-11T22:07:08.746Z,13.00
2023-02-11T22:09:55.841Z,13.20
2023-02-11T22:12:41.528Z,13.10
2023-02-11T22:15:26.705Z,13.10
2023-02-11T22:18:12.061Z,13.00
2023-02-11T22:20:58.521Z,12.90
2023-02-11T22:23:44.242Z,13.10
2023-02-11T22:26:31.240Z,13.20
2023-02-11T22:29:16.592Z,13.00
2023-02-11T22:32:02.190Z,13.00
2023-02-11T22:34:47.752Z,13.20
2023-02-11T22:37:33.129Z,13.10
2023-02-11T22:40:18.874Z,13.20
2023-02-11T22:43:05.843Z,13.10
2023-02-11T22:45:51.691Z,12.90
2023-02-11T22:48:37.098Z,12.90
2023-02-11T22:51:23.916Z,13.00
2023-02-11T22:54:11.554Z,13.10
2023-02-11T22:56:56.904Z,13.00
2023-02-11T22:59:44.326Z,13.10
2023-02-11T23:02:31.325Z,13.00
2023-02-11T23:05:17.068Z,13.00
2023-02-11T23:08:02.594Z,13.20
2023-02-11T23:10:49.581Z,13.30
2023-02-11T23:13:35.850Z,13.30
2023-02-11T23:16:23.703Z,13.20
2023-02-11T23:19:10.730Z,13.30
2023-02-11T23:21:56.545Z,13.40
2023-02-11T23:24:42.241Z,13.50
2023-02-11T23:27:27.925Z,13.50
2023-02-11T23:30:14.008Z,13.30
2023-02-11T23:33:01.071Z,13.40
2023-02-11T23:35:46.550Z,13.30
2023-02-11T23:38:31.985Z,13.30
2023-02-11T23:41:18.079Z,13.20
2023-02-11T23:44:03.536Z,13.40
2023-02-11T23:46:49.440Z,13.30
2023-02-11T23:49:36.317Z,13.50
2023-02-11T23:52:21.663Z,13.50
2023-02-11T23:55:07.494Z,13.40
2023-02-11T23:57:53.298Z,13.60
